Time;durP1;ratioP1;P1;durP2;ratioP2;P2;SDS_P1;SDS_P2;PMS_P1;PMS_P2;Temp;Humidity;BMP_temperature;BMP_pressure;BME280_temperature;BME280_humidity;BME280_pressure;Samples;Min_cycle;Max_cycle;Signal;HPM_P1;HPM_P2
2022/04/17 00:00:10;;;;;;;2.90;0.50;;;;;;;3.83;70.14;99859.38;1764849;79;21080;-51
2022/04/17 00:02:37;;;;;;;0.80;0.40;;;;;;;3.79;70.33;99863.42;1767988;80;20921;-51
2022/04/17 00:05:05;;;;;;;1.03;0.40;;;;;;;3.75;70.49;99859.05;1768043;80;21317;-51
2022/04/17 00:07:34;;;;;;;0.93;0.50;;;;;;;3.74;70.73;99859.95;1766664;80;21111;-51
2022/04/17 00:10:02;;;;;;;1.20;0.50;;;;;;;3.78;70.85;99855.46;1770531;80;20945;-51
2022/04/17 00:12:30;;;;;;;1.97;0.70;;;;;;;3.83;70.91;99860.72;1765055;79;21399;-52
2022/04/17 00:15:00;;;;;;;1.47;0.60;;;;;;;3.84;70.96;99859.33;1767576;80;21473;-51
2022/04/17 00:17:26;;;;;;;1.20;0.53;;;;;;;3.87;71.00;99855.28;1770253;80;21107;-51
2022/04/17 00:19:53;;;;;;;1.63;0.63;;;;;;;3.89;70.98;99851.27;1766282;80;21602;-52
2022/04/17 00:22:19;;;;;;;2.03;1.07;;;;;;;3.89;71.03;99858.80;1766501;80;21500;-51
2022/04/17 00:24:47;;;;;;;2.13;0.73;;;;;;;3.87;71.05;99861.94;1767588;80;21616;-52
2022/04/17 00:27:15;;;;;;;1.20;0.60;;;;;;;3.85;71.13;99865.53;1771841;80;21545;-51
2022/04/17 00:29:43;;;;;;;1.80;0.80;;;;;;;3.82;71.26;99861.16;1778056;78;21071;-52
2022/04/17 00:32:11;;;;;;;1.20;0.60;;;;;;;3.78;71.36;99859.45;1769560;80;21867;-50
2022/04/17 00:34:37;;;;;;;2.53;0.50;;;;;;;3.76;71.53;99861.26;1763504;80;22272;-51
2022/04/17 00:37:05;;;;;;;0.60;0.40;;;;;;;3.76;71.68;99857.27;1767153;80;21589;-52
2022/04/17 00:39:31;;;;;;;1.00;0.40;;;;;;;3.76;71.86;99860.80;1771585;80;21389;-51
2022/04/17 00:42:00;;;;;;;2.30;0.40;;;;;;;3.82;71.97;99854.96;1772894;80;21380;-51
2022/04/17 00:44:26;;;;;;;1.10;0.50;;;;;;;3.88;72.05;99850.84;1768398;80;21190;-51
2022/04/17 00:46:53;;;;;;;0.70;0.50;;;;;;;3.95;72.09;99846.69;1771653;78;21036;-51
2022/04/17 00:49:20;;;;;;;1.47;0.60;;;;;;;4.01;72.08;99847.89;1771158;80;21072;-51
2022/04/17 00:51:47;;;;;;;3.63;0.40;;;;;;;4.05;72.05;99849.59;1771325;80;21072;-52
2022/04/17 00:54:14;;;;;;;0.90;0.57;;;;;;;4.08;72.11;99847.33;1765180;80;21028;-52
2022/04/17 00:56:41;;;;;;;0.90;0.53;;;;;;;4.09;72.18;99849.94;1768946;80;21148;-52
2022/04/17 00:59:09;;;;;;;0.70;0.40;;;;;;;4.08;72.34;99855.33;1772927;78;20973;-51
2022/04/17 01:01:38;;;;;;;0.70;0.57;;;;;;;4.04;72.38;99848.29;1769767;80;21084;-52
2022/04/17 01:04:05;;;;;;;1.07;0.43;;;;;;;4.00;72.56;99851.45;1771322;78;21052;-52
2022/04/17 01:06:32;;;;;;;1.60;0.40;;;;;;;3.97;72.74;99844.00;1775025;80;21020;-52
2022/04/17 01:09:00;;;;;;;0.50;0.40;;;;;;;3.97;72.90;99845.33;1765150;80;21705;-51
2022/04/17 01:11:28;;;;;;;0.40;0.30;;;;;;;3.99;73.15;99846.19;1774227;79;21671;-52
2022/04/17 01:13:55;;;;;;;0.70;0.47;;;;;;;4.01;73.29;99848.34;1741982;80;21366;-51
2022/04/17 01:16:23;;;;;;;0.70;0.50;;;;;;;4.03;73.35;99852.73;1772565;80;20960;-52
2022/04/17 01:19:11;;;;;;;0.70;0.40;;;;;;;4.06;73.38;99853.14;1764311;80;21067;-51
2022/04/17 01:21:34;;;;;;;1.20;0.50;;;;;;;4.09;73.42;99855.27;1770926;80;21891;-51
2022/04/17 01:27:03;;;;;;;;;;;;;;;4.07;73.50;99851.78;1768660;78;21287;-52
2022/04/17 01:29:31;;;;;;;0.70;0.50;;;;;;;4.04;73.67;99847.84;1767515;78;20465;-52
2022/04/17 01:31:59;;;;;;;0.53;0.50;;;;;;;4.00;73.73;99838.59;1769394;80;20933;-52
2022/04/17 01:34:25;;;;;;;0.60;0.40;;;;;;;3.98;73.85;99844.42;1770558;78;21477;-51
2022/04/17 01:36:52;;;;;;;0.90;0.43;;;;;;;3.97;74.00;99839.55;1770177;80;20956;-51
2022/04/17 01:39:18;;;;;;;0.60;0.40;;;;;;;3.99;74.08;99844.85;1769510;80;21365;-51
2022/04/17 01:41:47;;;;;;;0.80;0.43;;;;;;;4.01;74.14;99844.34;1770550;80;21006;-52
2022/04/17 01:44:13;;;;;;;0.90;0.40;;;;;;;4.06;74.15;99849.14;1769500;80;21191;-52
2022/04/17 01:46:40;;;;;;;1.27;0.40;;;;;;;4.10;74.21;99840.16;1767584;80;21703;-52
2022/04/17 01:49:08;;;;;;;0.50;0.50;;;;;;;4.12;74.14;99843.68;1769373;80;21365;-52
2022/04/17 01:51:38;;;;;;;2.80;0.60;;;;;;;4.12;74.15;99845.02;1768785;80;20917;-51
2022/04/17 01:54:07;;;;;;;0.60;0.50;;;;;;;4.12;74.16;99843.68;1769945;80;20885;-52
2022/04/17 01:56:34;;;;;;;0.90;0.50;;;;;;;4.10;74.19;99841.05;1767718;80;21290;-51
2022/04/17 01:59:01;;;;;;;0.53;0.40;;;;;;;4.07;74.25;99841.58;1770848;78;21796;-52
2022/04/17 02:01:28;;;;;;;0.63;0.50;;;;;;;4.05;74.32;99838.94;1769830;78;20913;-52
2022/04/17 02:03:55;;;;;;;0.40;0.40;;;;;;;4.04;74.50;99835.85;1757430;80;21021;-51
2022/04/17 02:06:21;;;;;;;1.33;0.50;;;;;;;4.04;74.57;99830.98;1759344;79;21668;-52
2022/04/17 02:08:48;;;;;;;0.50;0.40;;;;;;;4.06;74.68;99822.50;1759260;80;21057;-53
2022/04/17 02:11:16;;;;;;;1.27;0.40;;;;;;;4.07;74.77;99822.94;1758939;80;21092;-51
2022/04/17 02:13:42;;;;;;;0.53;0.40;;;;;;;4.10;74.81;99822.39;1758947;80;21033;-52
2022/04/17 02:16:10;;;;;;;0.50;0.40;;;;;;;4.11;74.83;99816.62;1758752;80;20937;-51
2022/04/17 02:18:37;;;;;;;0.40;0.40;;;;;;;4.12;74.88;99819.25;1758699;80;21074;-52
2022/04/17 02:21:05;;;;;;;0.40;0.40;;;;;;;4.12;74.86;99812.59;1758453;79;21096;-51
2022/04/17 02:23:31;;;;;;;0.60;0.50;;;;;;;4.11;74.92;99818.83;1759446;80;22606;-51
2022/04/17 02:25:58;;;;;;;0.73;0.47;;;;;;;4.09;74.93;99815.77;1756814;80;21096;-52
2022/04/17 02:28:24;;;;;;;1.80;0.50;;;;;;;4.05;75.00;99809.64;1759146;80;21076;-52
2022/04/17 02:30:50;;;;;;;0.40;0.40;;;;;;;4.05;75.08;99812.30;1759099;80;21650;-51
2022/04/17 02:33:17;;;;;;;0.70;0.30;;;;;;;4.05;75.23;99809.64;1758513;80;21684;-51
2022/04/17 02:35:44;;;;;;;0.40;0.33;;;;;;;4.05;75.27;99811.42;1758819;80;21156;-52
2022/04/17 02:38:14;;;;;;;0.40;0.30;;;;;;;4.05;75.39;99811.42;1761145;80;21044;-51
2022/04/17 02:40:42;;;;;;;0.30;0.30;;;;;;;4.06;75.37;99810.52;1759303;80;21605;-51
2022/04/17 02:43:09;;;;;;;0.40;0.40;;;;;;;4.08;75.47;99805.56;1759217;80;21364;-51
2022/04/17 02:45:35;;;;;;;0.30;0.30;;;;;;;4.13;75.44;99800.16;1759700;80;21383;-52
2022/04/17 02:48:04;;;;;;;0.40;0.40;;;;;;;4.14;75.44;99797.91;1760600;80;20922;-52
2022/04/17 02:50:33;;;;;;;0.40;0.30;;;;;;;4.12;75.56;99800.60;1762151;80;20875;-51
2022/04/17 02:52:59;;;;;;;0.40;0.40;;;;;;;4.09;75.56;99803.77;1759573;80;21052;-52
2022/04/17 02:55:28;;;;;;;0.30;0.30;;;;;;;4.07;75.68;99802.95;1760922;80;20989;-51
2022/04/17 02:57:56;;;;;;;0.30;0.30;;;;;;;4.06;75.78;99795.42;1761890;80;21574;-51
2022/04/17 03:00:26;;;;;;;0.30;0.30;;;;;;;4.09;75.97;99798.45;1762163;80;23014;-52
2022/04/17 03:05:39;;;;;;;0.40;0.33;;;;;;;4.13;76.18;99805.48;1767876;80;21029;-51
2022/04/17 03:08:14;;;;;;;0.50;0.30;;;;;;;4.13;76.27;99802.81;1763216;80;21103;-52
2022/04/17 03:10:42;;;;;;;0.77;0.40;;;;;;;4.09;76.38;99798.45;1768608;80;21088;-49
2022/04/17 03:13:09;;;;;;;0.50;0.40;;;;;;;4.01;76.64;99807.05;1766650;80;21091;-50
2022/04/17 03:15:40;;;;;;;0.30;0.30;;;;;;;3.89;76.71;99812.66;1767173;80;21660;-50
2022/04/17 03:18:08;;;;;;;0.30;0.30;;;;;;;3.80;77.00;99810.60;1768123;80;21629;-50
2022/04/17 03:20:35;;;;;;;0.33;0.23;;;;;;;3.78;77.30;99815.52;1763935;80;21583;-51
2022/04/17 03:23:03;;;;;;;0.37;0.30;;;;;;;3.76;77.48;99812.88;1764992;80;22273;-51
2022/04/17 03:25:30;;;;;;;2.60;0.30;;;;;;;3.77;77.71;99806.66;1774110;80;21174;-51
2022/04/17 03:28:00;;;;;;;0.30;0.20;;;;;;;3.80;77.88;99809.27;1767457;80;21403;-51
2022/04/17 03:30:28;;;;;;;0.47;0.30;;;;;;;3.88;77.95;99810.89;1761965;80;21052;-50
2022/04/17 03:32:54;;;;;;;0.40;0.40;;;;;;;3.93;77.96;99809.87;1768849;80;21546;-51
2022/04/17 03:35:20;;;;;;;0.40;0.30;;;;;;;3.93;77.88;99806.34;1771550;80;21142;-50
2022/04/17 03:37:47;;;;;;;0.50;0.37;;;;;;;3.87;77.92;99804.69;1765478;80;21068;-51
2022/04/17 03:40:15;;;;;;;0.40;0.30;;;;;;;3.84;78.06;99810.06;1762735;80;21382;-51
2022/04/17 03:42:42;;;;;;;0.30;0.23;;;;;;;3.82;78.16;99817.69;1762232;80;21059;-49
2022/04/17 03:45:18;;;;;;;0.30;0.20;;;;;;;3.82;78.31;99809.70;1763805;80;21448;-51
2022/04/17 03:47:42;;;;;;;0.50;0.23;;;;;;;3.84;78.29;99811.84;1766281;80;21084;-51
2022/04/17 03:50:10;;;;;;;0.40;0.27;;;;;;;3.87;78.38;99815.80;1767543;80;21637;-51
2022/04/17 03:52:48;;;;;;;0.33;0.30;;;;;;;3.89;78.27;99813.98;1766609;80;20968;-50
2022/04/17 03:55:16;;;;;;;0.47;0.30;;;;;;;3.92;78.35;99816.56;1771850;80;20874;-52
2022/04/17 03:57:42;;;;;;;0.27;0.27;;;;;;;3.92;78.18;99816.56;1770412;80;21633;-52
2022/04/17 04:00:12;;;;;;;0.40;0.30;;;;;;;3.92;78.18;99824.55;1764681;80;21068;-51
2022/04/17 04:02:40;;;;;;;2.93;0.37;;;;;;;3.93;78.17;99823.65;1763823;80;21263;-50
2022/04/17 04:05:09;;;;;;;2.20;0.30;;;;;;;3.92;78.09;99828.55;1767317;80;21358;-52
2022/04/17 04:07:37;;;;;;;0.30;0.20;;;;;;;3.91;77.98;99829.48;1768141;80;21437;-50
2022/04/17 04:10:06;;;;;;;0.33;0.20;;;;;;;3.86;77.91;99818.91;1767957;80;21024;-51
2022/04/17 04:12:34;;;;;;;0.40;0.20;;;;;;;3.84;78.00;99822.05;1768957;80;21104;-49
2022/04/17 04:15:03;;;;;;;0.33;0.30;;;;;;;3.87;77.97;99829.11;1764985;80;21489;-51
2022/04/17 04:17:31;;;;;;;0.30;0.27;;;;;;;3.89;78.00;99829.96;1774063;80;21080;-51
2022/04/17 04:19:59;;;;;;;0.67;0.30;;;;;;;3.93;77.92;99832.52;1765804;80;21064;-50
2022/04/17 04:22:25;;;;;;;0.40;0.30;;;;;;;3.93;77.93;99833.84;1767875;78;21565;-49
2022/04/17 04:24:53;;;;;;;0.37;0.30;;;;;;;3.94;77.96;99836.06;1766630;80;21116;-49
2022/04/17 04:30:06;;;;;;;0.30;0.30;;;;;;;3.92;77.92;99830.76;1768791;80;21036;-51
2022/04/17 04:32:32;;;;;;;0.30;0.30;;;;;;;3.93;77.93;99841.84;1769993;80;21020;-50
2022/04/17 04:35:01;;;;;;;1.60;0.30;;;;;;;3.95;77.78;99840.48;1767801;80;21075;-50
2022/04/17 04:37:28;;;;;;;0.30;0.20;;;;;;;3.95;77.83;99845.81;1766003;80;21055;-51
2022/04/17 04:39:54;;;;;;;0.47;0.47;;;;;;;4.00;77.86;99847.91;1763990;80;21143;-51
2022/04/17 04:42:21;;;;;;;0.40;0.30;;;;;;;4.05;77.71;99856.25;1766695;80;21569;-52
2022/04/17 04:46:06;;;;;;;0.40;0.30;;;;;;;4.06;77.62;99845.15;1769704;80;20898;-53
2022/04/17 04:47:15;;;;;;;0.43;0.30;;;;;;;4.06;77.48;99848.69;1768064;80;21000;-52
2022/04/17 04:49:43;;;;;;;0.30;0.30;;;;;;;4.06;77.33;99856.68;1768036;80;21466;-51
2022/04/17 04:52:10;;;;;;;0.23;0.20;;;;;;;4.03;77.35;99848.73;1772211;80;21118;-50
2022/04/17 04:54:36;;;;;;;0.40;0.30;;;;;;;4.00;77.34;99848.80;1764805;80;21135;-51
2022/04/17 04:57:03;;;;;;;0.40;0.30;;;;;;;3.97;77.20;99850.66;1769697;80;22244;-52
2022/04/17 04:59:30;;;;;;;0.30;0.30;;;;;;;3.95;77.31;99848.02;1770867;80;21119;-52
2022/04/17 05:01:56;;;;;;;0.30;0.30;;;;;;;3.97;77.43;99846.21;1765264;79;21083;-52
2022/04/17 05:04:23;;;;;;;0.37;0.30;;;;;;;4.02;77.46;99857.64;1767484;80;22391;-52
2022/04/17 05:06:50;;;;;;;0.30;0.30;;;;;;;4.09;77.42;99854.39;1763080;80;20850;-51
2022/04/17 05:09:18;;;;;;;0.50;0.40;;;;;;;4.12;77.23;99853.00;1761392;80;20874;-51
2022/04/17 05:11:46;;;;;;;0.40;0.40;;;;;;;4.13;76.96;99857.42;1761730;80;20921;-52
2022/04/17 05:14:14;;;;;;;0.30;0.30;;;;;;;4.12;76.99;99856.55;1762157;80;21609;-50
2022/04/17 05:17:55;;;;;;;0.60;0.37;;;;;;;4.17;76.75;99850.66;1793161;78;26871;-52
2022/04/17 05:20:24;;;;;;;0.43;0.40;;;;;;;4.13;76.64;99855.64;1763622;80;20931;-52
2022/04/17 05:22:56;;;;;;;0.30;0.20;;;;;;;4.14;76.65;99856.07;1765824;80;21097;-53
2022/04/17 05:25:24;;;;;;;0.60;0.30;;;;;;;4.16;76.40;99855.59;1763888;80;20997;-51
2022/04/17 05:27:52;;;;;;;0.53;0.30;;;;;;;4.16;76.16;99854.26;1772671;80;21509;-50
2022/04/17 05:30:18;;;;;;;0.47;0.40;;;;;;;4.12;76.17;99856.55;1763846;79;21057;-52
2022/04/17 05:32:45;;;;;;;0.40;0.30;;;;;;;4.09;76.14;99855.72;1765432;79;21661;-50
2022/04/17 05:35:13;;;;;;;1.03;0.40;;;;;;;4.06;76.13;99863.80;1765890;80;21143;-50
2022/04/17 05:37:40;;;;;;;0.70;0.40;;;;;;;4.03;76.26;99855.40;1766001;80;20930;-51
2022/04/17 05:40:09;;;;;;;0.40;0.30;;;;;;;4.07;76.35;99857.56;1769970;80;21003;-50
2022/04/17 05:42:37;;;;;;;0.60;0.40;;;;;;;4.12;76.29;99858.33;1768981;80;20934;-50
2022/04/17 05:45:05;;;;;;;0.40;0.30;;;;;;;4.17;76.11;99861.31;1765055;80;21037;-52
2022/04/17 05:47:31;;;;;;;0.57;0.40;;;;;;;4.22;75.43;99859.91;1764881;80;21766;-52
2022/04/17 05:49:59;;;;;;;0.50;0.40;;;;;;;4.25;75.29;99851.86;1769938;79;21037;-53
2022/04/17 05:52:26;;;;;;;1.00;0.40;;;;;;;4.27;75.15;99855.80;1769174;80;21409;-51
2022/04/17 05:54:52;;;;;;;0.30;0.30;;;;;;;4.27;75.11;99847.80;1768070;80;21034;-52
2022/04/17 05:57:19;;;;;;;0.50;0.33;;;;;;;4.28;75.08;99850.89;1764433;80;21034;-53
2022/04/17 05:59:46;;;;;;;0.40;0.40;;;;;;;4.28;74.97;99850.89;1762586;80;22094;-53
2022/04/17 06:02:14;;;;;;;0.40;0.37;;;;;;;4.31;74.95;99858.38;1716977;82;21452;-52
2022/04/17 06:04:40;;;;;;;0.67;0.37;;;;;;;4.34;74.47;99853.45;1713083;83;20962;-50
2022/04/17 06:07:06;;;;;;;0.70;0.40;;;;;;;4.34;74.40;99855.63;1712681;81;21401;-50
2022/04/17 06:09:35;;;;;;;0.40;0.40;;;;;;;4.31;74.38;99857.05;1680201;83;21480;-50
2022/04/17 06:12:03;;;;;;;0.40;0.40;;;;;;;4.27;74.16;99859.34;1708448;83;22125;-51
2022/04/17 06:14:29;;;;;;;1.00;0.50;;;;;;;4.23;74.27;99867.45;1679903;83;21415;-50
2022/04/17 06:16:57;;;;;;;1.30;0.47;;;;;;;4.23;74.43;99871.44;1706263;82;21447;-48
2022/04/17 06:19:24;;;;;;;0.40;0.40;;;;;;;4.23;74.38;99872.32;1707887;83;21078;-50
2022/04/17 06:21:52;;;;;;;0.50;0.40;;;;;;;4.22;74.34;99871.89;1759161;81;20941;-50
2022/04/17 06:24:18;;;;;;;0.50;0.40;;;;;;;4.20;74.34;99859.05;1759194;81;21564;-49
2022/04/17 06:26:44;;;;;;;0.47;0.37;;;;;;;4.20;74.35;99868.38;1758271;80;21018;-51
2022/04/17 06:29:10;;;;;;;2.53;0.50;;;;;;;4.22;74.53;99861.69;1756989;81;21069;-51
2022/04/17 06:31:45;;;;;;;0.60;0.40;;;;;;;4.28;74.71;99858.89;1759851;81;21061;-50
2022/04/17 06:34:07;;;;;;;0.70;0.50;;;;;;;4.33;74.71;99862.35;1755881;80;22334;-48
2022/04/17 06:36:34;;;;;;;0.70;0.53;;;;;;;4.36;74.75;99863.14;1755693;80;21046;-51
2022/04/17 06:39:02;;;;;;;0.97;0.40;;;;;;;4.37;74.54;99867.56;1673501;83;21125;-52
2022/04/17 06:41:28;;;;;;;0.70;0.40;;;;;;;4.33;74.41;99869.89;1754738;81;21080;-51
2022/04/17 06:43:55;;;;;;;0.53;0.40;;;;;;;4.29;74.73;99871.30;1755877;81;21152;-52
2022/04/17 06:46:22;;;;;;;0.30;0.30;;;;;;;4.28;74.93;99870.42;1755285;81;21026;-51
2022/04/17 06:48:49;;;;;;;0.20;0.20;;;;;;;4.27;75.07;99875.78;1709222;82;21332;-52
2022/04/17 06:51:19;;;;;;;0.40;0.30;;;;;;;4.23;74.92;99875.44;1702149;83;21547;-52
2022/04/17 06:53:45;;;;;;;0.50;0.40;;;;;;;4.23;75.29;99879.44;1752032;80;21111;-52
2022/04/17 06:56:15;;;;;;;0.30;0.30;;;;;;;4.23;75.45;99882.98;1679077;83;21677;-52
2022/04/17 06:58:42;;;;;;;0.30;0.30;;;;;;;4.21;75.58;99882.13;1755661;81;21058;-51
2022/04/17 07:01:10;;;;;;;0.90;0.40;;;;;;;4.21;75.48;99883.91;1755759;80;21092;-51
2022/04/17 07:03:36;;;;;;;0.40;0.30;;;;;;;4.16;75.65;99886.23;1757267;81;21052;-51
2022/04/17 07:06:03;;;;;;;0.50;0.40;;;;;;;4.14;75.92;99892.48;1756367;81;20990;-51
2022/04/17 07:08:30;;;;;;;0.90;0.67;;;;;;;4.17;76.32;99894.61;1757168;81;21514;-52
2022/04/17 07:10:58;;;;;;;0.87;0.67;;;;;;;4.19;76.28;99891.92;1758519;81;21040;-53
2022/04/17 07:13:26;;;;;;;0.60;0.50;;;;;;;4.17;76.60;99889.73;1757033;81;21279;-52
2022/04/17 07:15:54;;;;;;;0.40;0.40;;;;;;;4.18;76.75;99892.83;1755404;81;21058;-52
2022/04/17 07:18:23;;;;;;;0.87;0.50;;;;;;;4.22;76.74;99892.33;1716106;81;21540;-51
2022/04/17 07:20:49;;;;;;;0.40;0.40;;;;;;;4.22;76.61;99893.66;1709905;82;21113;-52
2022/04/17 07:23:17;;;;;;;0.40;0.40;;;;;;;4.24;76.61;99893.19;1709782;82;21041;-51
2022/04/17 07:25:45;;;;;;;0.40;0.30;;;;;;;4.29;76.57;99891.29;1714616;82;21448;-52
2022/04/17 07:28:13;;;;;;;0.30;0.30;;;;;;;4.30;76.63;99890.38;1709462;82;21404;-51
2022/04/17 07:30:39;;;;;;;0.43;0.20;;;;;;;4.38;76.65;99887.98;1708321;82;21097;-51
2022/04/17 07:33:06;;;;;;;0.77;0.30;;;;;;;4.45;75.94;99889.60;1709948;82;21112;-52
2022/04/17 07:35:33;;;;;;;0.80;0.40;;;;;;;4.49;75.42;99885.98;1711651;82;21931;-51
2022/04/17 07:38:04;;;;;;;0.40;0.37;;;;;;;4.55;75.67;99884.95;1711857;82;21793;-51
2022/04/17 07:40:32;;;;;;;0.37;0.30;;;;;;;4.62;74.70;99887.02;1717116;82;21089;-51
2022/04/17 07:43:00;;;;;;;0.30;0.20;;;;;;;4.67;74.08;99887.37;1712423;82;20956;-50
2022/04/17 07:45:27;;;;;;;0.60;0.30;;;;;;;4.69;72.88;99873.52;1709776;82;20949;-49
2022/04/17 07:47:53;;;;;;;0.57;0.17;;;;;;;4.76;72.47;99875.61;1713515;82;20974;-51
2022/04/17 07:50:24;;;;;;;0.20;0.20;;;;;;;4.84;72.48;99869.19;1714636;82;21424;-51
2022/04/17 07:52:51;;;;;;;0.20;0.20;;;;;;;4.96;72.50;99868.01;1712515;82;20977;-50
2022/04/17 07:55:17;;;;;;;0.20;0.20;;;;;;;5.09;71.33;99864.61;1721064;82;22057;-49
2022/04/17 08:00:19;;;;;;;0.40;0.30;;;;;;;5.21;69.83;99874.50;1655234;82;21461;-51
2022/04/17 08:02:50;;;;;;;0.30;0.30;;;;;;;5.24;69.15;99870.89;1716357;82;21190;-51
2022/04/17 08:05:13;;;;;;;0.30;0.20;;;;;;;5.29;68.75;99859.17;1707449;82;21562;-51
2022/04/17 08:07:41;;;;;;;0.20;0.20;;;;;;;5.33;68.44;99858.66;1712380;82;21023;-52
2022/04/17 08:10:09;;;;;;;0.70;0.30;;;;;;;5.38;67.79;99859.86;1713083;82;20990;-50
2022/04/17 08:12:37;;;;;;;0.60;0.40;;;;;;;5.38;68.28;99865.20;1710257;82;21528;-51
2022/04/17 08:15:05;;;;;;;0.67;0.40;;;;;;;5.28;69.19;99868.55;1709145;82;21399;-51
2022/04/17 08:17:33;;;;;;;0.20;0.20;;;;;;;5.18;70.03;99883.94;1729454;80;22115;-51
2022/04/17 08:20:01;;;;;;;0.20;0.10;;;;;;;5.06;70.35;99892.23;1750184;81;21504;-52
2022/04/17 08:22:27;;;;;;;0.10;0.10;;;;;;;4.86;70.42;99891.34;1671963;83;20927;-51
2022/04/17 08:24:55;;;;;;;0.20;0.10;;;;;;;4.75;71.33;99882.73;1757615;81;21243;-50
2022/04/17 08:27:21;;;;;;;0.13;0.10;;;;;;;4.66;71.29;99886.94;1755716;81;21746;-51
2022/04/17 08:29:49;;;;;;;0.10;0.10;;;;;;;4.61;71.83;99882.59;1754565;80;20884;-51
2022/04/17 08:32:16;;;;;;;0.20;0.10;;;;;;;4.64;72.27;99887.42;1753162;81;22515;-51
2022/04/17 08:34:43;;;;;;;0.70;0.20;;;;;;;4.77;72.54;99884.01;1754142;81;21059;-52
2022/04/17 08:37:09;;;;;;;0.40;0.30;;;;;;;4.86;72.60;99875.34;1753365;81;21125;-51
2022/04/17 08:39:35;;;;;;;0.47;0.23;;;;;;;4.90;71.99;99866.38;1754662;80;22129;-52
2022/04/17 08:42:02;;;;;;;0.30;0.23;;;;;;;4.88;72.58;99876.65;1751228;81;21089;-52
2022/04/17 08:44:29;;;;;;;0.20;0.20;;;;;;;4.84;72.54;99878.53;1751183;81;21070;-52
2022/04/17 08:46:55;;;;;;;0.20;0.20;;;;;;;4.78;72.50;99880.43;1753643;81;21025;-50
2022/04/17 08:49:23;;;;;;;0.10;0.10;;;;;;;4.66;72.76;99893.61;1752816;80;21106;-52
2022/04/17 08:51:53;;;;;;;0.30;0.20;;;;;;;4.55;72.86;99885.83;1754432;81;20892;-50
2022/04/17 08:54:20;;;;;;;0.10;0.10;;;;;;;4.49;73.54;99902.42;1752768;81;21105;-51
2022/04/17 08:56:48;;;;;;;0.10;0.10;;;;;;;4.39;73.81;99891.08;1755643;81;21109;-52
2022/04/17 08:59:15;;;;;;;0.10;0.10;;;;;;;4.29;74.32;99891.29;1753482;81;20947;-51
2022/04/17 09:01:42;;;;;;;0.30;0.20;;;;;;;4.18;74.31;99888.38;1754734;81;21006;-52
2022/04/17 09:04:08;;;;;;;0.30;0.20;;;;;;;4.14;74.69;99889.38;1753275;81;21790;-52
2022/04/17 09:06:35;;;;;;;0.30;0.20;;;;;;;4.16;75.17;99896.88;1750398;81;22236;-52
2022/04/17 09:09:05;;;;;;;0.70;0.30;;;;;;;4.21;75.68;99889.23;1754099;80;20957;-51
2022/04/17 09:11:34;;;;;;;0.30;0.20;;;;;;;4.30;76.21;99887.27;1753100;81;20903;-51
2022/04/17 09:14:03;;;;;;;0.33;0.20;;;;;;;4.45;76.44;99892.27;1754843;81;21297;-52
2022/04/17 09:16:34;;;;;;;0.57;0.20;;;;;;;4.63;76.68;99892.78;1754359;80;21337;-51
2022/04/17 09:19:16;;;;;;;0.37;0.20;;;;;;;4.78;75.75;99881.77;1750344;81;20959;-50
2022/04/17 09:21:42;;;;;;;0.27;0.20;;;;;;;4.85;73.64;99889.59;1746929;81;21018;-52
2022/04/17 09:24:18;;;;;;;0.20;0.20;;;;;;;4.87;72.48;99867.77;1668048;83;21117;-51
2022/04/17 09:26:52;;;;;;;0.47;0.20;;;;;;;4.90;72.84;99879.71;1749419;81;20911;-50
2022/04/17 09:29:26;;;;;;;0.43;0.30;;;;;;;4.96;71.61;99872.01;1749046;81;21695;-51
2022/04/17 09:32:06;;;;;;;0.67;0.30;;;;;;;4.97;71.16;99871.09;1750218;81;21005;-50
2022/04/17 09:34:50;;;;;;;1.70;0.60;;;;;;;5.02;71.18;99873.19;1672555;83;21062;-50
2022/04/17 09:37:23;;;;;;;0.43;0.30;;;;;;;5.13;71.81;99867.60;1749776;81;20961;-50
2022/04/17 09:39:54;;;;;;;0.30;0.20;;;;;;;5.25;71.44;99859.31;1752212;81;21400;-49
2022/04/17 09:42:23;;;;;;;0.40;0.20;;;;;;;5.37;70.18;99854.98;1662960;83;21557;-49
2022/04/17 09:44:50;;;;;;;0.33;0.33;;;;;;;5.48;69.20;99854.70;1747741;80;21111;-50
2022/04/17 09:47:26;;;;;;;0.40;0.20;;;;;;;5.58;68.57;99853.10;1752165;81;21487;-50
2022/04/17 09:49:56;;;;;;;0.90;0.42;;;;;;;5.67;67.41;99851.52;1751498;81;20966;-50
2022/04/17 09:52:33;;;;;;;0.47;0.20;;;;;;;5.73;66.95;99845.12;1748940;81;21034;-49
2022/04/17 09:55:01;;;;;;;0.67;0.27;;;;;;;5.82;66.59;99840.87;1749782;81;21852;-50
2022/04/17 09:57:33;;;;;;;0.40;0.30;;;;;;;5.91;66.19;99836.64;1672087;83;20987;-51
2022/04/17 10:00:19;;;;;;;0.80;0.55;;;;;;;5.98;65.37;99838.67;1749481;81;21379;-50
2022/04/17 10:02:46;;;;;;;0.50;0.30;;;;;;;6.02;65.25;99837.23;1669147;83;21591;-51
2022/04/17 10:05:16;;;;;;;0.30;0.20;;;;;;;6.07;64.09;99833.95;1748832;81;21377;-51
2022/04/17 10:07:46;;;;;;;0.20;0.20;;;;;;;6.15;62.97;99836.86;1667052;84;21144;-51
2022/04/17 10:10:13;;;;;;;0.20;0.20;;;;;;;6.24;63.50;99832.13;1750743;81;21036;-51
2022/04/17 10:12:45;;;;;;;0.60;0.20;;;;;;;6.38;63.22;99833.08;1748316;80;21028;-51
2022/04/17 10:15:14;;;;;;;0.30;0.20;;;;;;;6.45;60.21;99825.28;1666301;83;21070;-50
2022/04/17 10:17:42;;;;;;;0.20;0.20;;;;;;;6.50;58.86;99826.45;1746922;81;21078;-51
2022/04/17 10:20:12;;;;;;;0.30;0.20;;;;;;;6.44;57.98;99828.87;1730401;81;21090;-52
2022/04/17 10:22:42;;;;;;;0.30;0.20;;;;;;;6.39;59.00;99818.30;1738901;81;21200;-50
2022/04/17 10:25:11;;;;;;;0.30;0.20;;;;;;;6.37;59.18;99820.63;1738398;81;20902;-50
2022/04/17 10:27:50;;;;;;;0.20;0.20;;;;;;;6.31;58.13;99827.01;1732762;81;21550;-50
2022/04/17 10:30:18;;;;;;;0.33;0.20;;;;;;;6.22;58.41;99823.27;1733242;81;21072;-51
2022/04/17 10:33:21;;;;;;;0.20;0.20;;;;;;;6.15;59.45;99824.83;1735960;81;21332;-50
2022/04/17 10:36:08;;;;;;;0.70;0.40;;;;;;;6.11;59.58;99841.44;1731511;81;21373;-50
2022/04/17 10:39:29;;;;;;;0.50;0.33;;;;;;;6.08;59.58;99842.39;1731417;81;21436;-51
2022/04/17 10:41:55;;;;;;;0.50;0.30;;;;;;;6.06;59.30;99837.54;1729586;81;21344;-50
2022/04/17 10:44:21;;;;;;;0.30;0.30;;;;;;;6.08;60.00;99841.05;1732132;81;21060;-51
2022/04/17 10:46:51;;;;;;;0.40;0.20;;;;;;;6.17;59.91;99832.36;1669239;81;21727;-51
2022/04/17 10:49:22;;;;;;;2.30;0.20;;;;;;;6.21;59.62;99820.17;1731278;81;21382;-51
2022/04/17 10:51:54;;;;;;;0.33;0.20;;;;;;;6.27;59.61;99832.05;1703630;81;21373;-51
2022/04/17 10:54:20;;;;;;;0.40;0.20;;;;;;;6.31;59.79;99820.78;1734261;81;20910;-51
2022/04/17 10:56:59;;;;;;;0.60;0.30;;;;;;;6.35;59.92;99822.45;1735416;81;21239;-51
2022/04/17 10:59:32;;;;;;;0.40;0.30;;;;;;;6.39;59.64;99824.98;1737268;81;21809;-51
2022/04/17 11:02:10;;;;;;;0.30;0.20;;;;;;;6.42;59.49;99831.59;1728593;81;22546;-50
2022/04/17 11:04:42;;;;;;;0.27;0.20;;;;;;;6.40;58.97;99822.72;1732297;81;20946;-49
2022/04/17 11:07:16;;;;;;;0.40;0.30;;;;;;;6.37;59.31;99829.98;1733375;81;20985;-51
2022/04/17 11:09:46;;;;;;;0.30;0.20;;;;;;;6.35;58.74;99826.47;1729093;81;21211;-49
2022/04/17 11:12:22;;;;;;;0.50;0.30;;;;;;;6.27;58.67;99828.04;1729155;81;21629;-51
2022/04/17 11:14:57;;;;;;;0.40;0.20;;;;;;;6.19;58.45;99810.02;1730001;81;20974;-51
2022/04/17 11:17:24;;;;;;;1.40;0.20;;;;;;;6.13;58.47;99817.31;1731834;81;20975;-50
2022/04/17 11:19:58;;;;;;;0.87;0.40;;;;;;;6.06;58.05;99817.95;1733455;81;21568;-50
2022/04/17 11:22:37;;;;;;;1.10;0.50;;;;;;;6.02;58.94;99813.18;1755715;81;21039;-52
2022/04/17 11:25:10;;;;;;;1.10;0.30;;;;;;;6.04;59.91;99809.98;1683643;83;22264;-51
2022/04/17 11:27:52;;;;;;;0.60;0.50;;;;;;;6.06;59.79;99812.16;1680724;84;20899;-51
2022/04/17 11:30:27;;;;;;;0.70;0.40;;;;;;;6.07;60.63;99807.69;1682124;83;20899;-50
2022/04/17 11:32:54;;;;;;;1.43;0.40;;;;;;;6.08;60.76;99806.77;1684557;84;21431;-51
2022/04/17 11:35:25;;;;;;;2.73;0.80;;;;;;;6.08;60.62;99796.96;1710278;83;21614;-51
2022/04/17 11:38:01;;;;;;;0.50;0.40;;;;;;;6.14;60.39;99795.02;1680306;83;21066;-50
2022/04/17 11:40:30;;;;;;;;;;;;;;;6.18;59.49;99792.68;1709947;82;21084;-50
2022/04/17 11:43:05;;;;;;;0.30;0.20;;;;;;;6.25;57.52;99815.63;1670486;83;20549;-49
2022/04/17 11:45:32;;;;;;;0.20;0.20;;;;;;;6.22;57.29;99817.92;1687699;83;21407;-50
2022/04/17 11:48:06;;;;;;;0.40;0.17;;;;;;;6.14;56.53;99812.39;1676530;83;21174;-51
2022/04/17 11:50:34;;;;;;;0.40;0.27;;;;;;;6.03;57.02;99814.94;1681042;83;21142;-49
2022/04/17 11:53:10;;;;;;;0.60;0.20;;;;;;;5.95;57.19;99820.08;1709754;82;21554;-49
2022/04/17 11:55:38;;;;;;;0.30;0.30;;;;;;;5.90;57.32;99831.34;1696750;83;21117;-50
2022/04/17 11:58:12;;;;;;;0.20;0.20;;;;;;;5.85;57.33;99825.23;1677181;83;22343;-51
2022/04/17 12:00:39;;;;;;;0.30;0.20;;;;;;;5.84;57.02;99828.81;1678643;84;21060;-51